sensor_id;sensor_type;location;lat;lon;timestamp;pressure;altitude;pressure_sealevel;temperature;humidity
67818;BME280;54614;47.576;7.524;2024-01-15T00:02:06;97704.84;;;20.74;34.12
67818;BME280;54614;47.576;7.524;2024-01-15T00:04:38;97708.16;;;20.69;34.17
67818;BME280;54614;47.576;7.524;2024-01-15T00:07:05;97712.47;;;20.70;34.10
67818;BME280;54614;47.576;7.524;2024-01-15T00:09:30;97717.19;;;20.68;34.09
67818;BME280;54614;47.576;7.524;2024-01-15T00:11:56;97706.50;;;20.68;34.12
67818;BME280;54614;47.576;7.524;2024-01-15T00:14:23;97714.94;;;20.65;34.25
67818;BME280;54614;47.576;7.524;2024-01-15T00:16:49;97718.22;;;20.60;34.25
67818;BME280;54614;47.576;7.524;2024-01-15T00:19:17;97719.66;;;20.63;34.15
67818;BME280;54614;47.576;7.524;2024-01-15T00:21:44;97723.16;;;20.64;34.23
67818;BME280;54614;47.576;7.524;2024-01-15T00:24:09;97709.81;;;20.64;34.18
67818;BME280;54614;47.576;7.524;2024-01-15T00:26:35;97715.34;;;20.62;34.30
67818;BME280;54614;47.576;7.524;2024-01-15T00:29:02;97710.00;;;20.62;34.26
67818;BME280;54614;47.576;7.524;2024-01-15T00:31:29;97727.88;;;20.62;34.19
67818;BME280;54614;47.576;7.524;2024-01-15T00:33:56;97718.22;;;20.60;34.25
67818;BME280;54614;47.576;7.524;2024-01-15T00:36:23;97720.28;;;20.58;34.25
67818;BME280;54614;47.576;7.524;2024-01-15T00:38:49;97721.94;;;20.59;34.30
67818;BME280;54614;47.576;7.524;2024-01-15T00:41:15;97715.34;;;20.62;34.20
67818;BME280;54614;47.576;7.524;2024-01-15T00:43:41;97714.94;;;20.58;34.27
67818;BME280;54614;47.576;7.524;2024-01-15T00:46:07;97718.03;;;20.55;34.30
67818;BME280;54614;47.576;7.524;2024-01-15T00:48:33;97717.81;;;20.57;34.22
67818;BME280;54614;47.576;7.524;2024-01-15T00:50:59;97717.00;;;20.56;34.11
67818;BME280;54614;47.576;7.524;2024-01-15T00:53:25;97718.03;;;20.55;34.22
67818;BME280;54614;47.576;7.524;2024-01-15T00:55:51;97709.41;;;20.53;34.24
67818;BME280;54614;47.576;7.524;2024-01-15T00:58:18;97698.91;;;20.52;34.38
67818;BME280;54614;47.576;7.524;2024-01-15T01:00:44;97698.31;;;20.50;34.22
67818;BME280;54614;47.576;7.524;2024-01-15T01:03:10;97699.94;;;20.51;34.32
67818;BME280;54614;47.576;7.524;2024-01-15T01:05:36;97718.66;;;20.51;34.30
67818;BME280;54614;47.576;7.524;2024-01-15T01:08:02;97719.66;;;20.50;34.27
67818;BME280;54614;47.576;7.524;2024-01-15T01:10:28;97714.53;;;20.48;34.32
67818;BME280;54614;47.576;7.524;2024-01-15T01:12:53;97718.44;;;20.46;34.32
67818;BME280;54614;47.576;7.524;2024-01-15T01:15:19;97722.97;;;20.45;34.26
67818;BME280;54614;47.576;7.524;2024-01-15T01:17:45;97726.44;;;20.46;34.44
67818;BME280;54614;47.576;7.524;2024-01-15T01:20:12;97732.00;;;20.44;34.21
67818;BME280;54614;47.576;7.524;2024-01-15T01:22:38;97724.81;;;20.45;34.27
67818;BME280;54614;47.576;7.524;2024-01-15T01:25:04;97724.19;;;20.43;34.18
67818;BME280;54614;47.576;7.524;2024-01-15T01:27:30;97732.00;;;20.44;34.34
67818;BME280;54614;47.576;7.524;2024-01-15T01:29:56;97735.91;;;20.42;34.28
67818;BME280;54614;47.576;7.524;2024-01-15T01:32:22;97740.44;;;20.41;34.20
67818;BME280;54614;47.576;7.524;2024-01-15T01:34:47;97734.25;;;20.41;34.27
67818;BME280;54614;47.576;7.524;2024-01-15T01:37:14;97724.97;;;20.37;34.30
67818;BME280;54614;47.576;7.524;2024-01-15T01:39:41;97729.72;;;20.35;34.26
67818;BME280;54614;47.576;7.524;2024-01-15T01:42:07;97729.50;;;20.36;34.31
67818;BME280;54614;47.576;7.524;2024-01-15T01:44:33;97725.19;;;20.35;34.43
67818;BME280;54614;47.576;7.524;2024-01-15T01:47:00;97728.06;;;20.34;34.19
67818;BME280;54614;47.576;7.524;2024-01-15T01:49:27;97724.56;;;20.33;34.30
67818;BME280;54614;47.576;7.524;2024-01-15T01:51:58;97728.47;;;20.31;34.19
67818;BME280;54614;47.576;7.524;2024-01-15T01:54:31;97729.69;;;20.28;34.18
67818;BME280;54614;47.576;7.524;2024-01-15T01:56:58;97732.38;;;20.28;34.35
67818;BME280;54614;47.576;7.524;2024-01-15T01:59:27;97733.41;;;20.27;34.23
67818;BME280;54614;47.576;7.524;2024-01-15T02:01:54;97728.06;;;20.27;34.38
67818;BME280;54614;47.576;7.524;2024-01-15T02:04:24;97725.59;;;20.25;34.25
67818;BME280;54614;47.576;7.524;2024-01-15T02:06:51;97716.34;;;20.28;34.20
67818;BME280;54614;47.576;7.524;2024-01-15T02:09:18;97724.75;;;20.25;34.21
67818;BME280;54614;47.576;7.524;2024-01-15T02:11:46;97712.03;;;20.27;34.17
67818;BME280;54614;47.576;7.524;2024-01-15T02:14:13;97704.63;;;20.22;34.31
67818;BME280;54614;47.576;7.524;2024-01-15T02:16:39;97709.38;;;20.20;34.30
67818;BME280;54614;47.576;7.524;2024-01-15T02:19:05;97708.13;;;20.23;34.15
67818;BME280;54614;47.576;7.524;2024-01-15T02:21:32;97699.09;;;20.24;34.14
67818;BME280;54614;47.576;7.524;2024-01-15T02:23:58;97705.03;;;20.19;34.31
67818;BME280;54614;47.576;7.524;2024-01-15T02:26:24;97707.72;;;20.19;34.13
67818;BME280;54614;47.576;7.524;2024-01-15T02:28:51;97709.56;;;20.19;34.24
67818;BME280;54614;47.576;7.524;2024-01-15T02:31:17;97703.41;;;20.18;34.36
67818;BME280;54614;47.576;7.524;2024-01-15T02:33:43;97701.75;;;20.17;34.22
67818;BME280;54614;47.576;7.524;2024-01-15T02:36:11;97704.44;;;20.17;34.28
67818;BME280;54614;47.576;7.524;2024-01-15T02:38:38;97692.72;;;20.18;34.19
67818;BME280;54614;47.576;7.524;2024-01-15T02:41:04;97686.34;;;20.19;34.24
67818;BME280;54614;47.576;7.524;2024-01-15T02:43:30;97676.69;;;20.18;34.21
67818;BME280;54614;47.576;7.524;2024-01-15T02:45:55;97671.38;;;20.18;34.23
67818;BME280;54614;47.576;7.524;2024-01-15T02:48:21;97678.75;;;20.16;34.29
67818;BME280;54614;47.576;7.524;2024-01-15T02:50:47;97673.63;;;20.15;34.24
67818;BME280;54614;47.576;7.524;2024-01-15T02:53:13;97674.25;;;20.17;34.24
67818;BME280;54614;47.576;7.524;2024-01-15T02:55:38;97682.88;;;20.19;34.31
67818;BME280;54614;47.576;7.524;2024-01-15T02:58:04;97674.84;;;20.19;34.27
67818;BME280;54614;47.576;7.524;2024-01-15T03:00:30;97677.72;;;20.17;34.31
67818;BME280;54614;47.576;7.524;2024-01-15T03:02:56;97670.75;;;20.16;34.13
67818;BME280;54614;47.576;7.524;2024-01-15T03:05:22;97659.03;;;20.11;34.35
67818;BME280;54614;47.576;7.524;2024-01-15T03:07:48;97667.66;;;20.13;34.26
67818;BME280;54614;47.576;7.524;2024-01-15T03:10:14;97663.97;;;20.14;34.43
67818;BME280;54614;47.576;7.524;2024-01-15T03:12:39;97663.16;;;20.13;34.33
67818;BME280;54614;47.576;7.524;2024-01-15T03:15:06;97657.81;;;20.13;34.52
67818;BME280;54614;47.576;7.524;2024-01-15T03:17:32;97657.81;;;20.13;34.25
67818;BME280;54614;47.576;7.524;2024-01-15T03:19:57;97657.00;;;20.13;34.30
67818;BME280;54614;47.576;7.524;2024-01-15T03:22:23;97659.25;;;20.09;34.55
67818;BME280;54614;47.576;7.524;2024-01-15T03:24:49;97651.03;;;20.11;34.54
67818;BME280;54614;47.576;7.524;2024-01-15T03:27:15;97642.81;;;20.12;34.34
67818;BME280;54614;47.576;7.524;2024-01-15T03:29:41;97642.00;;;20.12;34.30
67818;BME280;54614;47.576;7.524;2024-01-15T03:32:07;97644.47;;;20.13;34.22
67818;BME280;54614;47.576;7.524;2024-01-15T03:34:33;97641.78;;;20.07;34.36
67818;BME280;54614;47.576;7.524;2024-01-15T03:36:58;97644.66;;;20.12;34.36
67818;BME280;54614;47.576;7.524;2024-01-15T03:39:25;97646.31;;;20.06;34.41
67818;BME280;54614;47.576;7.524;2024-01-15T03:41:51;97650.41;;;20.09;34.38
67818;BME280;54614;47.576;7.524;2024-01-15T03:44:16;97647.94;;;20.07;34.30
67818;BME280;54614;47.576;7.524;2024-01-15T03:46:42;97639.13;;;20.07;34.48
67818;BME280;54614;47.576;7.524;2024-01-15T03:49:08;97638.72;;;20.10;34.24
67818;BME280;54614;47.576;7.524;2024-01-15T03:51:34;97632.56;;;20.09;34.24
67818;BME280;54614;47.576;7.524;2024-01-15T03:53:59;97632.97;;;20.06;34.28
67818;BME280;54614;47.576;7.524;2024-01-15T03:56:25;97631.09;;;20.07;34.44
67818;BME280;54614;47.576;7.524;2024-01-15T03:58:51;97630.28;;;20.06;34.37
67818;BME280;54614;47.576;7.524;2024-01-15T04:01:17;97633.16;;;20.05;34.27
67818;BME280;54614;47.576;7.524;2024-01-15T04:03:42;97632.56;;;20.03;34.44
67818;BME280;54614;47.576;7.524;2024-01-15T04:06:08;97639.94;;;20.01;34.48
67818;BME280;54614;47.576;7.524;2024-01-15T04:08:34;97640.56;;;20.03;34.42
67818;BME280;54614;47.576;7.524;2024-01-15T04:10:59;97644.44;;;20.00;34.46
67818;BME280;54614;47.576;7.524;2024-01-15T04:13:27;97635.63;;;20.00;34.46
67818;BME280;54614;47.576;7.524;2024-01-15T04:15:53;97631.72;;;20.02;34.25
67818;BME280;54614;47.576;7.524;2024-01-15T04:18:18;97635.22;;;20.03;34.44
67818;BME280;54614;47.576;7.524;2024-01-15T04:20:44;97636.25;;;20.02;34.30
67818;BME280;54614;47.576;7.524;2024-01-15T04:23:10;97630.28;;;20.00;34.24
67818;BME280;54614;47.576;7.524;2024-01-15T04:25:36;97637.69;;;19.98;34.30
67818;BME280;54614;47.576;7.524;2024-01-15T04:28:02;97637.69;;;19.98;34.24
67818;BME280;54614;47.576;7.524;2024-01-15T04:30:27;97639.31;;;19.99;34.39
67818;BME280;54614;47.576;7.524;2024-01-15T04:32:53;97634.81;;;19.99;34.43
67818;BME280;54614;47.576;7.524;2024-01-15T04:35:19;97636.44;;;20.00;34.21
67818;BME280;54614;47.576;7.524;2024-01-15T04:37:45;97637.06;;;19.95;34.34
67818;BME280;54614;47.576;7.524;2024-01-15T04:40:11;97635.22;;;19.96;34.45
67818;BME280;54614;47.576;7.524;2024-01-15T04:42:37;97631.72;;;19.95;34.35
67818;BME280;54614;47.576;7.524;2024-01-15T04:45:03;97622.69;;;19.96;34.20
67818;BME280;54614;47.576;7.524;2024-01-15T04:47:29;97625.97;;;19.99;34.24
67818;BME280;54614;47.576;7.524;2024-01-15T04:49:55;97622.91;;;20.02;34.12
67818;BME280;54614;47.576;7.524;2024-01-15T04:52:21;97621.25;;;20.01;34.14
67818;BME280;54614;47.576;7.524;2024-01-15T04:54:46;97627.81;;;19.98;34.16
67818;BME280;54614;47.576;7.524;2024-01-15T04:57:12;97629.66;;;19.98;34.28
67818;BME280;54614;47.576;7.524;2024-01-15T04:59:38;97628.84;;;19.97;34.31
67818;BME280;54614;47.576;7.524;2024-01-15T05:02:05;97628.84;;;19.97;34.22
67818;BME280;54614;47.576;7.524;2024-01-15T05:04:30;97628.66;;;19.99;34.18
67818;BME280;54614;47.576;7.524;2024-01-15T05:06:56;97628.22;;;20.02;34.25
67818;BME280;54614;47.576;7.524;2024-01-15T05:09:22;97638.50;;;20.05;34.29
67818;BME280;54614;47.576;7.524;2024-01-15T05:11:48;97637.69;;;20.04;34.33
67818;BME280;54614;47.576;7.524;2024-01-15T05:14:13;97635.44;;;20.08;34.39
67818;BME280;54614;47.576;7.524;2024-01-15T05:16:44;97636.25;;;20.15;37.17
67818;BME280;54614;47.576;7.524;2024-01-15T05:19:12;97627.81;;;20.11;35.55
67818;BME280;54614;47.576;7.524;2024-01-15T05:21:37;97631.94;;;20.14;34.81
67818;BME280;54614;47.576;7.524;2024-01-15T05:24:03;97632.34;;;20.17;34.77
67818;BME280;54614;47.576;7.524;2024-01-15T05:26:29;97632.56;;;20.16;34.58
67818;BME280;54614;47.576;7.524;2024-01-15T05:28:55;97635.22;;;20.16;34.51
67818;BME280;54614;47.576;7.524;2024-01-15T05:31:20;97638.28;;;20.19;34.59
67818;BME280;54614;47.576;7.524;2024-01-15T05:33:46;97645.06;;;20.22;34.21
67818;BME280;54614;47.576;7.524;2024-01-15T05:36:12;97648.97;;;20.19;34.51
67818;BME280;54614;47.576;7.524;2024-01-15T05:38:38;97647.34;;;20.18;34.45
67818;BME280;54614;47.576;7.524;2024-01-15T05:41:05;97637.28;;;20.20;34.75
67818;BME280;54614;47.576;7.524;2024-01-15T05:43:31;97644.66;;;20.25;34.60
67818;BME280;54614;47.576;7.524;2024-01-15T05:45:57;97642.00;;;20.25;34.71
67818;BME280;54614;47.576;7.524;2024-01-15T05:48:23;97641.59;;;20.28;34.65
67818;BME280;54614;47.576;7.524;2024-01-15T05:50:49;97633.16;;;20.31;34.46
67818;BME280;54614;47.576;7.524;2024-01-15T05:53:15;97632.34;;;20.31;34.52
67818;BME280;54614;47.576;7.524;2024-01-15T05:55:41;97634.19;;;20.37;34.51
67818;BME280;54614;47.576;7.524;2024-01-15T05:58:06;97642.41;;;20.42;34.57
67818;BME280;54614;47.576;7.524;2024-01-15T06:00:32;97634.00;;;20.45;34.62
67818;BME280;54614;47.576;7.524;2024-01-15T06:03:00;97637.88;;;20.49;34.81
67818;BME280;54614;47.576;7.524;2024-01-15T06:05:26;97637.47;;;20.52;34.83
67818;BME280;54614;47.576;7.524;2024-01-15T06:07:52;97636.66;;;20.51;35.02
67818;BME280;54614;47.576;7.524;2024-01-15T06:10:18;97631.50;;;20.56;34.78
67818;BME280;54614;47.576;7.524;2024-01-15T06:12:44;97638.28;;;20.59;34.77
67818;BME280;54614;47.576;7.524;2024-01-15T06:15:10;97636.22;;;20.61;34.62
67818;BME280;54614;47.576;7.524;2024-01-15T06:17:36;97632.53;;;20.62;34.66
67818;BME280;54614;47.576;7.524;2024-01-15T06:20:03;97639.72;;;20.62;35.99
67818;BME280;54614;47.576;7.524;2024-01-15T06:22:29;97636.84;;;20.63;34.94
67818;BME280;54614;47.576;7.524;2024-01-15T06:24:55;97641.16;;;20.64;38.46
67818;BME280;54614;47.576;7.524;2024-01-15T06:27:21;97626.13;;;20.70;41.64
67818;BME280;54614;47.576;7.524;2024-01-15T06:29:47;97629.44;;;20.65;38.36
67818;BME280;54614;47.576;7.524;2024-01-15T06:32:13;97631.69;;;20.75;40.34
67818;BME280;54614;47.576;7.524;2024-01-15T06:34:39;97629.41;;;20.78;40.32
67818;BME280;54614;47.576;7.524;2024-01-15T06:37:05;97632.09;;;20.85;39.48
67818;BME280;54614;47.576;7.524;2024-01-15T06:39:31;97633.13;;;20.84;39.13
67818;BME280;54614;47.576;7.524;2024-01-15T06:41:57;97625.50;;;20.87;38.77
67818;BME280;54614;47.576;7.524;2024-01-15T06:44:23;97631.47;;;20.89;38.46
67818;BME280;54614;47.576;7.524;2024-01-15T06:46:49;97633.28;;;20.96;38.32
67818;BME280;54614;47.576;7.524;2024-01-15T06:49:14;97624.44;;;20.95;38.28
67818;BME280;54614;47.576;7.524;2024-01-15T06:51:40;97622.63;;;20.89;35.94
67818;BME280;54614;47.576;7.524;2024-01-15T06:54:07;97634.53;;;20.93;35.30
67818;BME280;54614;47.576;7.524;2024-01-15T06:56:33;97630.81;;;20.94;34.99
67818;BME280;54614;47.576;7.524;2024-01-15T06:58:59;97632.28;;;20.90;34.64
67818;BME280;54614;47.576;7.524;2024-01-15T07:01:24;97627.78;;;20.84;34.59
67818;BME280;54614;47.576;7.524;2024-01-15T07:03:50;97626.94;;;20.90;34.54
67818;BME280;54614;47.576;7.524;2024-01-15T07:06:16;97629.59;;;20.90;34.19
67818;BME280;54614;47.576;7.524;2024-01-15T07:08:42;97624.06;;;20.85;34.40
67818;BME280;54614;47.576;7.524;2024-01-15T07:11:08;97637.84;;;20.82;34.27
67818;BME280;54614;47.576;7.524;2024-01-15T07:13:36;97631.69;;;20.81;34.33
67818;BME280;54614;47.576;7.524;2024-01-15T07:16:03;97634.34;;;20.81;34.09
67818;BME280;54614;47.576;7.524;2024-01-15T07:18:29;97640.31;;;20.77;33.93
67818;BME280;54614;47.576;7.524;2024-01-15T07:20:54;97634.34;;;20.75;33.98
67818;BME280;54614;47.576;7.524;2024-01-15T07:23:20;97640.09;;;20.72;33.63
67818;BME280;54614;47.576;7.524;2024-01-15T07:25:46;97632.31;;;20.70;33.63
67818;BME280;54614;47.576;7.524;2024-01-15T07:28:12;97629.00;;;20.75;33.64
67818;BME280;54614;47.576;7.524;2024-01-15T07:30:37;97628.19;;;20.74;33.54
67818;BME280;54614;47.576;7.524;2024-01-15T07:33:05;97622.22;;;20.72;33.48
67818;BME280;54614;47.576;7.524;2024-01-15T07:35:31;97621.81;;;20.69;33.67
67818;BME280;54614;47.576;7.524;2024-01-15T07:37:57;97624.50;;;20.69;33.74
67818;BME280;54614;47.576;7.524;2024-01-15T07:40:23;97631.06;;;20.66;33.87
67818;BME280;54614;47.576;7.524;2024-01-15T07:42:51;97632.50;;;20.69;33.71
67818;BME280;54614;47.576;7.524;2024-01-15T07:45:17;97630.25;;;20.66;33.66
67818;BME280;54614;47.576;7.524;2024-01-15T07:47:43;97630.88;;;20.68;33.66
67818;BME280;54614;47.576;7.524;2024-01-15T07:50:09;97628.19;;;20.68;33.84
67818;BME280;54614;47.576;7.524;2024-01-15T07:52:35;97624.09;;;20.65;33.79
67818;BME280;54614;47.576;7.524;2024-01-15T07:55:01;97616.91;;;20.66;33.73
67818;BME280;54614;47.576;7.524;2024-01-15T07:57:29;97624.31;;;20.64;33.84
67818;BME280;54614;47.576;7.524;2024-01-15T07:59:54;97608.88;;;20.66;33.71
67818;BME280;54614;47.576;7.524;2024-01-15T08:02:20;97601.06;;;20.64;33.71
67818;BME280;54614;47.576;7.524;2024-01-15T08:04:47;97592.44;;;20.62;33.83
67818;BME280;54614;47.576;7.524;2024-01-15T08:07:13;97593.47;;;20.61;33.84
67818;BME280;54614;47.576;7.524;2024-01-15T08:09:39;97583.00;;;20.59;33.83
67818;BME280;54614;47.576;7.524;2024-01-15T08:12:05;97593.69;;;20.59;33.67
67818;BME280;54614;47.576;7.524;2024-01-15T08:14:31;97589.38;;;20.58;33.63
67818;BME280;54614;47.576;7.524;2024-01-15T08:16:57;97602.13;;;20.56;33.84
67818;BME280;54614;47.576;7.524;2024-01-15T08:19:23;97595.53;;;20.59;33.78
67818;BME280;54614;47.576;7.524;2024-01-15T08:21:49;97596.38;;;20.59;33.78
67818;BME280;54614;47.576;7.524;2024-01-15T08:24:16;97591.41;;;20.63;33.68
67818;BME280;54614;47.576;7.524;2024-01-15T08:26:42;97600.69;;;20.60;33.66
67818;BME280;54614;47.576;7.524;2024-01-15T08:29:08;97598.22;;;20.59;33.54
67818;BME280;54614;47.576;7.524;2024-01-15T08:31:34;97605.19;;;20.60;33.63
67818;BME280;54614;47.576;7.524;2024-01-15T08:33:59;97602.94;;;20.57;33.72
67818;BME280;54614;47.576;7.524;2024-01-15T08:36:27;97598.41;;;20.57;33.74
67818;BME280;54614;47.576;7.524;2024-01-15T08:38:55;97601.91;;;20.58;33.49
67818;BME280;54614;47.576;7.524;2024-01-15T08:41:21;97600.47;;;20.55;33.64
67818;BME280;54614;47.576;7.524;2024-01-15T08:43:47;97593.72;;;20.53;33.75
67818;BME280;54614;47.576;7.524;2024-01-15T08:46:13;97592.88;;;20.52;33.63
67818;BME280;54614;47.576;7.524;2024-01-15T08:48:38;97591.25;;;20.51;33.50
67818;BME280;54614;47.576;7.524;2024-01-15T08:51:05;97584.66;;;20.54;33.70
67818;BME280;54614;47.576;7.524;2024-01-15T08:53:31;97578.69;;;20.58;33.61
67818;BME280;54614;47.576;7.524;2024-01-15T08:55:58;97578.28;;;20.62;33.68
67818;BME280;54614;47.576;7.524;2024-01-15T08:58:24;97582.16;;;20.66;33.67
67818;BME280;54614;47.576;7.524;2024-01-15T09:00:51;97582.34;;;20.71;33.71
67818;BME280;54614;47.576;7.524;2024-01-15T09:03:17;97579.69;;;20.64;33.87
67818;BME280;54614;47.576;7.524;2024-01-15T09:05:42;97576.41;;;20.69;33.99
67818;BME280;54614;47.576;7.524;2024-01-15T09:08:09;97571.66;;;20.71;33.74
67818;BME280;54614;47.576;7.524;2024-01-15T09:10:34;97573.09;;;20.73;33.78
67818;BME280;54614;47.576;7.524;2024-01-15T09:13:00;97571.63;;;20.77;33.81
67818;BME280;54614;47.576;7.524;2024-01-15T09:15:26;97572.88;;;20.81;33.41
67818;BME280;54614;47.576;7.524;2024-01-15T09:17:52;97562.38;;;20.86;33.30
67818;BME280;54614;47.576;7.524;2024-01-15T09:22:44;97550.44;;;20.89;32.92
67818;BME280;54614;47.576;7.524;2024-01-15T09:25:10;97544.47;;;20.94;32.65
67818;BME280;54614;47.576;7.524;2024-01-15T09:27:36;97548.00;;;20.87;32.80
67818;BME280;54614;47.576;7.524;2024-01-15T09:30:05;97544.72;;;20.85;32.92
67818;BME280;54614;47.576;7.524;2024-01-15T09:32:31;97542.44;;;20.89;32.68
67818;BME280;54614;47.576;7.524;2024-01-15T09:34:58;97534.59;;;20.94;32.65
67818;BME280;54614;47.576;7.524;2024-01-15T09:37:24;97532.75;;;20.95;32.63
67818;BME280;54614;47.576;7.524;2024-01-15T09:39:49;97527.00;;;20.91;32.73
67818;BME280;54614;47.576;7.524;2024-01-15T09:42:16;97526.59;;;20.87;32.62
67818;BME280;54614;47.576;7.524;2024-01-15T09:44:42;97527.25;;;20.83;32.60
67818;BME280;54614;47.576;7.524;2024-01-15T09:47:09;97530.13;;;20.81;32.70
67818;BME280;54614;47.576;7.524;2024-01-15T09:49:35;97534.03;;;20.79;32.59
67818;BME280;54614;47.576;7.524;2024-01-15T09:52:03;97545.75;;;20.78;32.74
67818;BME280;54614;47.576;7.524;2024-01-15T09:54:29;97548.41;;;20.78;32.71
67818;BME280;54614;47.576;7.524;2024-01-15T09:57:00;97543.50;;;20.75;32.52
67818;BME280;54614;47.576;7.524;2024-01-15T09:59:26;97540.81;;;20.75;32.65
67818;BME280;54614;47.576;7.524;2024-01-15T10:01:55;97534.25;;;20.71;32.73
67818;BME280;54614;47.576;7.524;2024-01-15T10:04:21;97542.06;;;20.72;32.69
67818;BME280;54614;47.576;7.524;2024-01-15T10:06:51;97536.09;;;20.70;32.53
67818;BME280;54614;47.576;7.524;2024-01-15T10:09:18;97546.81;;;20.70;32.62
67818;BME280;54614;47.576;7.524;2024-01-15T10:11:45;97533.66;;;20.69;32.40
67818;BME280;54614;47.576;7.524;2024-01-15T10:14:12;97541.06;;;20.67;32.65
67818;BME280;54614;47.576;7.524;2024-01-15T10:16:42;97529.97;;;20.63;32.81
67818;BME280;54614;47.576;7.524;2024-01-15T10:19:08;97536.13;;;20.64;32.75
67818;BME280;54614;47.576;7.524;2024-01-15T10:21:35;97541.47;;;20.64;32.63
67818;BME280;54614;47.576;7.524;2024-01-15T10:24:03;97537.97;;;20.63;32.68
67818;BME280;54614;47.576;7.524;2024-01-15T10:26:31;97538.41;;;20.60;32.68
67818;BME280;54614;47.576;7.524;2024-01-15T10:28:58;97532.25;;;20.59;32.73
67818;BME280;54614;47.576;7.524;2024-01-15T10:31:26;97536.38;;;20.55;32.79
67818;BME280;54614;47.576;7.524;2024-01-15T10:33:53;97535.34;;;20.56;32.82
67818;BME280;54614;47.576;7.524;2024-01-15T10:36:19;97536.97;;;20.57;32.79
67818;BME280;54614;47.576;7.524;2024-01-15T10:38:46;97539.25;;;20.54;32.64
67818;BME280;54614;47.576;7.524;2024-01-15T10:41:12;97533.91;;;20.54;32.73
67818;BME280;54614;47.576;7.524;2024-01-15T10:43:38;97536.56;;;20.54;32.78
67818;BME280;54614;47.576;7.524;2024-01-15T10:46:07;97541.72;;;20.55;32.54
67818;BME280;54614;47.576;7.524;2024-01-15T10:48:34;97537.19;;;20.56;32.71
67818;BME280;54614;47.576;7.524;2024-01-15T10:51:01;97541.91;;;20.54;32.68
67818;BME280;54614;47.576;7.524;2024-01-15T10:53:38;97540.91;;;20.55;32.66
67818;BME280;54614;47.576;7.524;2024-01-15T10:56:08;97542.13;;;20.52;32.72
67818;BME280;54614;47.576;7.524;2024-01-15T10:58:36;97535.97;;;20.52;32.56
67818;BME280;54614;47.576;7.524;2024-01-15T11:01:04;97530.22;;;20.48;32.82
67818;BME280;54614;47.576;7.524;2024-01-15T11:03:30;97529.19;;;20.49;32.62
67818;BME280;54614;47.576;7.524;2024-01-15T11:05:56;97532.50;;;20.45;32.59
67818;BME280;54614;47.576;7.524;2024-01-15T11:08:24;97537.84;;;20.45;32.71
67818;BME280;54614;47.576;7.524;2024-01-15T11:10:51;97529.00;;;20.44;32.87
67818;BME280;54614;47.576;7.524;2024-01-15T11:16:10;97532.09;;;20.41;32.73
67818;BME280;54614;47.576;7.524;2024-01-15T11:19:02;97534.56;;;20.43;32.75
67818;BME280;54614;47.576;7.524;2024-01-15T11:21:28;97528.59;;;20.41;32.66
67818;BME280;54614;47.576;7.524;2024-01-15T11:24:02;97544.22;;;20.44;32.66
67818;BME280;54614;47.576;7.524;2024-01-15T11:26:46;97544.84;;;20.39;32.66
67818;BME280;54614;47.576;7.524;2024-01-15T11:31:58;97543.59;;;20.35;32.77
67818;BME280;54614;47.576;7.524;2024-01-15T11:40:21;97533.31;;;20.32;32.84
67818;BME280;54614;47.576;7.524;2024-01-15T11:42:49;97537.44;;;20.28;32.83
67818;BME280;54614;47.576;7.524;2024-01-15T11:45:20;97542.38;;;20.31;32.67
67818;BME280;54614;47.576;7.524;2024-01-15T11:50:18;97543.19;;;20.25;32.67
67818;BME280;54614;47.576;7.524;2024-01-15T11:53:00;97564.34;;;20.26;32.78
67818;BME280;54614;47.576;7.524;2024-01-15T11:55:35;97555.72;;;20.24;32.70
67818;BME280;54614;47.576;7.524;2024-01-15T11:58:09;97560.47;;;20.22;32.61
67818;BME280;54614;47.576;7.524;2024-01-15T12:00:44;97552.44;;;20.22;32.55
67818;BME280;54614;47.576;7.524;2024-01-15T12:03:10;97550.59;;;20.23;32.72
67818;BME280;54614;47.576;7.524;2024-01-15T12:05:39;97548.75;;;20.23;32.78
67818;BME280;54614;47.576;7.524;2024-01-15T12:08:06;97551.41;;;20.23;32.75
67818;BME280;54614;47.576;7.524;2024-01-15T12:10:38;97552.88;;;20.19;32.61
67818;BME280;54614;47.576;7.524;2024-01-15T12:13:15;97552.88;;;20.19;32.70
67818;BME280;54614;47.576;7.524;2024-01-15T12:15:43;97548.75;;;20.17;32.67
67818;BME280;54614;47.576;7.524;2024-01-15T12:18:12;97557.78;;;20.16;32.84
67818;BME280;54614;47.576;7.524;2024-01-15T12:20:39;97555.13;;;20.16;32.71
67818;BME280;54614;47.576;7.524;2024-01-15T12:23:05;97555.94;;;20.16;32.71
67818;BME280;54614;47.576;7.524;2024-01-15T12:25:32;97559.22;;;20.18;32.69
67818;BME280;54614;47.576;7.524;2024-01-15T12:28:00;97548.16;;;20.15;32.54
67818;BME280;54614;47.576;7.524;2024-01-15T12:30:30;97554.31;;;20.15;32.49
67818;BME280;54614;47.576;7.524;2024-01-15T12:33:02;97554.72;;;20.12;32.63
67818;BME280;54614;47.576;7.524;2024-01-15T12:35:29;97552.88;;;20.13;32.56
67818;BME280;54614;47.576;7.524;2024-01-15T12:37:56;97549.78;;;20.16;32.65
67818;BME280;54614;47.576;7.524;2024-01-15T12:40:23;97548.34;;;20.20;32.80
67818;BME280;54614;47.576;7.524;2024-01-15T12:42:49;97546.06;;;20.23;32.81
67818;BME280;54614;47.576;7.524;2024-01-15T12:45:15;97542.16;;;20.26;32.94
67818;BME280;54614;47.576;7.524;2024-01-15T12:47:42;97539.72;;;20.24;33.01
67818;BME280;54614;47.576;7.524;2024-01-15T12:50:11;97545.66;;;20.26;33.08
67818;BME280;54614;47.576;7.524;2024-01-15T12:52:40;97546.06;;;20.23;32.98
67818;BME280;54614;47.576;7.524;2024-01-15T12:55:08;97539.72;;;20.18;33.03
67818;BME280;54614;47.576;7.524;2024-01-15T12:57:35;97541.16;;;20.20;33.02
67818;BME280;54614;47.576;7.524;2024-01-15T13:00:03;97545.69;;;20.20;33.25
67818;BME280;54614;47.576;7.524;2024-01-15T13:02:36;97536.22;;;20.24;33.19
67818;BME280;54614;47.576;7.524;2024-01-15T13:05:04;97541.56;;;20.24;33.31
67818;BME280;54614;47.576;7.524;2024-01-15T13:07:30;97536.63;;;20.21;33.49
67818;BME280;54614;47.576;7.524;2024-01-15T13:09:55;97537.69;;;20.13;33.67
67818;BME280;54614;47.576;7.524;2024-01-15T13:12:21;97541.78;;;20.16;33.67
67818;BME280;54614;47.576;7.524;2024-01-15T13:14:48;97535.00;;;20.13;33.89